sensor_id;sensor_type;location;lat;lon;timestamp;P1;durP1;ratioP1;P2;durP2;ratioP2
66966;SDS011;53900;51.468;-2.586;2022-11-02T00:00:29;10.35;;;2.17;;
66966;SDS011;53900;51.468;-2.586;2022-11-02T00:02:55;11.70;;;2.08;;
66966;SDS011;53900;51.468;-2.586;2022-11-02T00:05:20;10.13;;;2.13;;
66966;SDS011;53900;51.468;-2.586;2022-11-02T00:07:52;9.80;;;1.45;;
66966;SDS011;53900;51.468;-2.586;2022-11-02T00:10:19;7.93;;;1.60;;
66966;SDS011;53900;51.468;-2.586;2022-11-02T00:12:45;12.50;;;1.15;;
66966;SDS011;53900;51.468;-2.586;2022-11-02T00:15:11;10.77;;;1.88;;
66966;SDS011;53900;51.468;-2.586;2022-11-02T00:17:37;10.50;;;1.67;;
66966;SDS011;53900;51.468;-2.586;2022-11-02T00:20:03;14.00;;;1.48;;
66966;SDS011;53900;51.468;-2.586;2022-11-02T00:22:29;12.48;;;2.40;;
66966;SDS011;53900;51.468;-2.586;2022-11-02T00:24:55;7.65;;;1.60;;
66966;SDS011;53900;51.468;-2.586;2022-11-02T00:27:21;11.45;;;2.90;;
66966;SDS011;53900;51.468;-2.586;2022-11-02T00:29:47;14.18;;;2.00;;
66966;SDS011;53900;51.468;-2.586;2022-11-02T00:32:12;9.45;;;1.58;;
66966;SDS011;53900;51.468;-2.586;2022-11-02T00:34:38;13.13;;;2.17;;
66966;SDS011;53900;51.468;-2.586;2022-11-02T00:37:03;11.55;;;1.70;;
66966;SDS011;53900;51.468;-2.586;2022-11-02T00:39:28;13.80;;;1.67;;
66966;SDS011;53900;51.468;-2.586;2022-11-02T00:41:54;12.43;;;1.80;;
66966;SDS011;53900;51.468;-2.586;2022-11-02T00:44:19;15.20;;;2.20;;
66966;SDS011;53900;51.468;-2.586;2022-11-02T00:46:44;8.73;;;1.67;;
66966;SDS011;53900;51.468;-2.586;2022-11-02T00:49:10;8.85;;;1.42;;
66966;SDS011;53900;51.468;-2.586;2022-11-02T00:51:35;15.90;;;1.92;;
66966;SDS011;53900;51.468;-2.586;2022-11-02T00:54:00;14.00;;;1.95;;
66966;SDS011;53900;51.468;-2.586;2022-11-02T00:56:26;14.27;;;1.90;;
66966;SDS011;53900;51.468;-2.586;2022-11-02T00:58:51;10.60;;;1.70;;
66966;SDS011;53900;51.468;-2.586;2022-11-02T01:01:17;16.20;;;1.75;;
66966;SDS011;53900;51.468;-2.586;2022-11-02T01:03:42;11.13;;;1.40;;
66966;SDS011;53900;51.468;-2.586;2022-11-02T01:06:11;12.50;;;1.85;;
66966;SDS011;53900;51.468;-2.586;2022-11-02T01:08:38;10.18;;;1.60;;
66966;SDS011;53900;51.468;-2.586;2022-11-02T01:11:08;10.38;;;1.48;;
66966;SDS011;53900;51.468;-2.586;2022-11-02T01:13:44;8.90;;;1.67;;
66966;SDS011;53900;51.468;-2.586;2022-11-02T01:16:10;7.07;;;1.40;;
66966;SDS011;53900;51.468;-2.586;2022-11-02T01:18:37;10.95;;;1.58;;
66966;SDS011;53900;51.468;-2.586;2022-11-02T01:21:02;11.05;;;2.30;;
66966;SDS011;53900;51.468;-2.586;2022-11-02T01:23:31;9.65;;;2.03;;
66966;SDS011;53900;51.468;-2.586;2022-11-02T01:25:57;18.00;;;2.03;;
66966;SDS011;53900;51.468;-2.586;2022-11-02T01:28:23;7.28;;;1.02;;
66966;SDS011;53900;51.468;-2.586;2022-11-02T01:30:48;5.25;;;0.82;;
66966;SDS011;53900;51.468;-2.586;2022-11-02T01:33:14;5.93;;;1.20;;
66966;SDS011;53900;51.468;-2.586;2022-11-02T01:35:39;6.50;;;1.13;;
66966;SDS011;53900;51.468;-2.586;2022-11-02T01:38:05;8.20;;;1.10;;
66966;SDS011;53900;51.468;-2.586;2022-11-02T01:40:33;12.65;;;1.02;;
66966;SDS011;53900;51.468;-2.586;2022-11-02T01:43:00;10.43;;;1.10;;
66966;SDS011;53900;51.468;-2.586;2022-11-02T01:45:42;9.95;;;1.60;;
66966;SDS011;53900;51.468;-2.586;2022-11-02T01:48:07;12.98;;;1.88;;
66966;SDS011;53900;51.468;-2.586;2022-11-02T01:50:32;9.95;;;1.08;;
66966;SDS011;53900;51.468;-2.586;2022-11-02T01:52:58;5.18;;;1.00;;
66966;SDS011;53900;51.468;-2.586;2022-11-02T01:55:25;7.47;;;1.98;;
66966;SDS011;53900;51.468;-2.586;2022-11-02T01:57:57;9.30;;;1.27;;
66966;SDS011;53900;51.468;-2.586;2022-11-02T02:00:24;7.75;;;1.40;;
66966;SDS011;53900;51.468;-2.586;2022-11-02T02:05:31;9.68;;;1.48;;
66966;SDS011;53900;51.468;-2.586;2022-11-02T02:07:58;13.95;;;2.38;;
66966;SDS011;53900;51.468;-2.586;2022-11-02T02:10:25;6.10;;;1.25;;
66966;SDS011;53900;51.468;-2.586;2022-11-02T02:12:50;12.75;;;1.95;;
66966;SDS011;53900;51.468;-2.586;2022-11-02T02:15:16;13.68;;;2.00;;
66966;SDS011;53900;51.468;-2.586;2022-11-02T02:17:49;12.05;;;1.75;;
66966;SDS011;53900;51.468;-2.586;2022-11-02T02:20:34;8.98;;;2.40;;
66966;SDS011;53900;51.468;-2.586;2022-11-02T02:31:48;12.43;;;1.83;;
66966;SDS011;53900;51.468;-2.586;2022-11-02T02:34:08;15.02;;;1.95;;
66966;SDS011;53900;51.468;-2.586;2022-11-02T02:36:49;14.00;;;2.15;;
66966;SDS011;53900;51.468;-2.586;2022-11-02T02:39:35;8.32;;;1.90;;
66966;SDS011;53900;51.468;-2.586;2022-11-02T02:42:08;14.10;;;2.03;;
66966;SDS011;53900;51.468;-2.586;2022-11-02T02:44:36;12.93;;;1.90;;
66966;SDS011;53900;51.468;-2.586;2022-11-02T02:47:10;13.50;;;2.00;;
66966;SDS011;53900;51.468;-2.586;2022-11-02T02:49:39;11.52;;;1.67;;
66966;SDS011;53900;51.468;-2.586;2022-11-02T02:52:09;12.80;;;1.50;;
66966;SDS011;53900;51.468;-2.586;2022-11-02T02:54:40;18.27;;;1.92;;
66966;SDS011;53900;51.468;-2.586;2022-11-02T02:57:08;13.82;;;2.08;;
66966;SDS011;53900;51.468;-2.586;2022-11-02T02:59:39;13.02;;;1.58;;
66966;SDS011;53900;51.468;-2.586;2022-11-02T03:02:06;8.35;;;1.58;;
66966;SDS011;53900;51.468;-2.586;2022-11-02T03:04:36;17.10;;;1.52;;
66966;SDS011;53900;51.468;-2.586;2022-11-02T03:07:01;15.80;;;1.80;;
66966;SDS011;53900;51.468;-2.586;2022-11-02T03:12:43;12.13;;;2.00;;
66966;SDS011;53900;51.468;-2.586;2022-11-02T03:15:06;14.15;;;1.92;;
66966;SDS011;53900;51.468;-2.586;2022-11-02T03:22:47;17.58;;;1.98;;
66966;SDS011;53900;51.468;-2.586;2022-11-02T03:25:27;10.82;;;1.35;;
66966;SDS011;53900;51.468;-2.586;2022-11-02T03:31:07;7.32;;;1.45;;
66966;SDS011;53900;51.468;-2.586;2022-11-02T03:33:37;9.70;;;1.95;;
66966;SDS011;53900;51.468;-2.586;2022-11-02T03:36:11;14.43;;;1.92;;
66966;SDS011;53900;51.468;-2.586;2022-11-02T03:38:43;9.50;;;1.80;;
66966;SDS011;53900;51.468;-2.586;2022-11-02T03:41:11;12.80;;;1.35;;
66966;SDS011;53900;51.468;-2.586;2022-11-02T03:43:37;13.50;;;1.35;;
66966;SDS011;53900;51.468;-2.586;2022-11-02T03:46:05;13.10;;;1.42;;
66966;SDS011;53900;51.468;-2.586;2022-11-02T03:48:34;8.80;;;2.00;;
66966;SDS011;53900;51.468;-2.586;2022-11-02T03:51:11;5.72;;;1.38;;
66966;SDS011;53900;51.468;-2.586;2022-11-02T03:53:43;10.18;;;1.40;;
66966;SDS011;53900;51.468;-2.586;2022-11-02T03:56:21;12.23;;;1.65;;
66966;SDS011;53900;51.468;-2.586;2022-11-02T03:58:51;7.03;;;1.30;;
66966;SDS011;53900;51.468;-2.586;2022-11-02T04:01:16;9.80;;;1.55;;
66966;SDS011;53900;51.468;-2.586;2022-11-02T04:03:43;8.00;;;1.30;;
66966;SDS011;53900;51.468;-2.586;2022-11-02T04:06:10;12.18;;;1.52;;
66966;SDS011;53900;51.468;-2.586;2022-11-02T04:08:38;14.57;;;1.67;;
66966;SDS011;53900;51.468;-2.586;2022-11-02T04:11:05;5.78;;;1.30;;
66966;SDS011;53900;51.468;-2.586;2022-11-02T04:13:49;16.67;;;1.48;;
66966;SDS011;53900;51.468;-2.586;2022-11-02T04:16:33;15.43;;;1.60;;
66966;SDS011;53900;51.468;-2.586;2022-11-02T04:18:59;11.02;;;1.33;;
66966;SDS011;53900;51.468;-2.586;2022-11-02T04:21:43;10.70;;;1.27;;
66966;SDS011;53900;51.468;-2.586;2022-11-02T04:24:28;10.60;;;1.23;;
66966;SDS011;53900;51.468;-2.586;2022-11-02T04:27:12;11.00;;;1.55;;
66966;SDS011;53900;51.468;-2.586;2022-11-02T04:29:37;5.75;;;0.90;;
66966;SDS011;53900;51.468;-2.586;2022-11-02T04:32:03;7.28;;;1.05;;
66966;SDS011;53900;51.468;-2.586;2022-11-02T04:34:28;8.52;;;1.50;;
66966;SDS011;53900;51.468;-2.586;2022-11-02T04:36:54;13.07;;;1.63;;
66966;SDS011;53900;51.468;-2.586;2022-11-02T04:39:19;6.85;;;1.20;;
66966;SDS011;53900;51.468;-2.586;2022-11-02T04:41:44;11.68;;;1.70;;
66966;SDS011;53900;51.468;-2.586;2022-11-02T04:44:11;7.90;;;1.15;;
66966;SDS011;53900;51.468;-2.586;2022-11-02T04:46:40;4.75;;;1.30;;
66966;SDS011;53900;51.468;-2.586;2022-11-02T04:49:06;8.05;;;1.27;;
66966;SDS011;53900;51.468;-2.586;2022-11-02T04:51:32;15.32;;;1.20;;
66966;SDS011;53900;51.468;-2.586;2022-11-02T04:53:57;6.30;;;1.10;;
66966;SDS011;53900;51.468;-2.586;2022-11-02T04:56:23;11.32;;;1.67;;
66966;SDS011;53900;51.468;-2.586;2022-11-02T04:58:51;9.93;;;1.42;;
66966;SDS011;53900;51.468;-2.586;2022-11-02T05:01:24;10.95;;;1.23;;
66966;SDS011;53900;51.468;-2.586;2022-11-02T05:03:51;6.85;;;1.13;;
66966;SDS011;53900;51.468;-2.586;2022-11-02T05:06:17;11.20;;;1.55;;
66966;SDS011;53900;51.468;-2.586;2022-11-02T05:08:44;9.02;;;1.15;;
66966;SDS011;53900;51.468;-2.586;2022-11-02T05:11:09;8.23;;;1.40;;
66966;SDS011;53900;51.468;-2.586;2022-11-02T05:13:35;10.73;;;1.17;;
66966;SDS011;53900;51.468;-2.586;2022-11-02T05:16:02;11.57;;;1.50;;
66966;SDS011;53900;51.468;-2.586;2022-11-02T05:18:27;10.50;;;1.90;;
66966;SDS011;53900;51.468;-2.586;2022-11-02T05:20:54;8.35;;;1.58;;
66966;SDS011;53900;51.468;-2.586;2022-11-02T05:25:52;8.98;;;1.20;;
66966;SDS011;53900;51.468;-2.586;2022-11-02T05:28:28;10.02;;;1.77;;
66966;SDS011;53900;51.468;-2.586;2022-11-02T05:30:56;18.27;;;2.00;;
66966;SDS011;53900;51.468;-2.586;2022-11-02T05:33:22;6.78;;;1.05;;
66966;SDS011;53900;51.468;-2.586;2022-11-02T05:35:48;12.70;;;1.65;;
66966;SDS011;53900;51.468;-2.586;2022-11-02T05:38:13;10.07;;;1.77;;
66966;SDS011;53900;51.468;-2.586;2022-11-02T05:40:38;14.65;;;2.00;;
66966;SDS011;53900;51.468;-2.586;2022-11-02T05:43:05;6.55;;;1.15;;
66966;SDS011;53900;51.468;-2.586;2022-11-02T05:45:32;6.72;;;1.40;;
66966;SDS011;53900;51.468;-2.586;2022-11-02T05:48:01;11.20;;;1.98;;
66966;SDS011;53900;51.468;-2.586;2022-11-02T05:50:27;15.85;;;1.92;;
66966;SDS011;53900;51.468;-2.586;2022-11-02T05:52:53;8.98;;;1.50;;
66966;SDS011;53900;51.468;-2.586;2022-11-02T05:55:18;12.98;;;1.60;;
66966;SDS011;53900;51.468;-2.586;2022-11-02T05:57:53;13.70;;;1.90;;
66966;SDS011;53900;51.468;-2.586;2022-11-02T06:00:20;8.38;;;1.27;;
66966;SDS011;53900;51.468;-2.586;2022-11-02T06:02:46;15.38;;;2.03;;
66966;SDS011;53900;51.468;-2.586;2022-11-02T06:05:12;7.05;;;1.42;;
66966;SDS011;53900;51.468;-2.586;2022-11-02T06:07:38;14.05;;;1.77;;
66966;SDS011;53900;51.468;-2.586;2022-11-02T06:10:03;7.93;;;1.55;;
66966;SDS011;53900;51.468;-2.586;2022-11-02T06:12:29;10.88;;;1.58;;
66966;SDS011;53900;51.468;-2.586;2022-11-02T06:14:54;6.18;;;1.33;;
66966;SDS011;53900;51.468;-2.586;2022-11-02T06:17:20;9.15;;;1.10;;
66966;SDS011;53900;51.468;-2.586;2022-11-02T06:19:45;9.95;;;1.63;;
66966;SDS011;53900;51.468;-2.586;2022-11-02T06:22:10;6.20;;;1.48;;
66966;SDS011;53900;51.468;-2.586;2022-11-02T06:24:36;13.93;;;1.70;;
66966;SDS011;53900;51.468;-2.586;2022-11-02T06:27:02;11.38;;;2.00;;
66966;SDS011;53900;51.468;-2.586;2022-11-02T06:29:27;9.27;;;1.63;;
66966;SDS011;53900;51.468;-2.586;2022-11-02T06:31:53;10.05;;;2.20;;
66966;SDS011;53900;51.468;-2.586;2022-11-02T06:34:18;13.25;;;1.50;;
66966;SDS011;53900;51.468;-2.586;2022-11-02T06:36:43;11.15;;;1.98;;
66966;SDS011;53900;51.468;-2.586;2022-11-02T06:39:09;11.93;;;1.90;;
66966;SDS011;53900;51.468;-2.586;2022-11-02T06:41:34;16.52;;;2.65;;
66966;SDS011;53900;51.468;-2.586;2022-11-02T06:43:59;17.48;;;2.08;;
66966;SDS011;53900;51.468;-2.586;2022-11-02T06:46:25;9.85;;;1.55;;
66966;SDS011;53900;51.468;-2.586;2022-11-02T06:48:50;10.90;;;1.95;;
66966;SDS011;53900;51.468;-2.586;2022-11-02T06:51:16;15.18;;;2.53;;
66966;SDS011;53900;51.468;-2.586;2022-11-02T06:53:41;14.55;;;2.10;;
66966;SDS011;53900;51.468;-2.586;2022-11-02T06:56:08;11.10;;;1.42;;
66966;SDS011;53900;51.468;-2.586;2022-11-02T06:58:33;10.63;;;1.65;;
66966;SDS011;53900;51.468;-2.586;2022-11-02T07:01:02;18.38;;;1.63;;
66966;SDS011;53900;51.468;-2.586;2022-11-02T07:03:31;12.75;;;1.80;;
66966;SDS011;53900;51.468;-2.586;2022-11-02T07:05:56;13.80;;;2.20;;
66966;SDS011;53900;51.468;-2.586;2022-11-02T07:08:22;9.18;;;1.30;;
66966;SDS011;53900;51.468;-2.586;2022-11-02T07:10:47;20.50;;;3.38;;
66966;SDS011;53900;51.468;-2.586;2022-11-02T07:13:13;12.30;;;1.67;;
66966;SDS011;53900;51.468;-2.586;2022-11-02T07:15:38;16.20;;;1.65;;
66966;SDS011;53900;51.468;-2.586;2022-11-02T07:18:04;15.73;;;1.73;;
66966;SDS011;53900;51.468;-2.586;2022-11-02T07:20:30;8.75;;;1.73;;
66966;SDS011;53900;51.468;-2.586;2022-11-02T07:22:57;19.30;;;3.03;;
66966;SDS011;53900;51.468;-2.586;2022-11-02T07:25:23;18.13;;;2.10;;
66966;SDS011;53900;51.468;-2.586;2022-11-02T07:27:51;10.15;;;1.65;;
66966;SDS011;53900;51.468;-2.586;2022-11-02T07:30:16;10.95;;;2.00;;
66966;SDS011;53900;51.468;-2.586;2022-11-02T07:32:42;11.18;;;1.70;;
66966;SDS011;53900;51.468;-2.586;2022-11-02T07:35:09;16.45;;;2.45;;
66966;SDS011;53900;51.468;-2.586;2022-11-02T07:37:36;12.90;;;2.03;;
66966;SDS011;53900;51.468;-2.586;2022-11-02T07:40:02;24.02;;;2.92;;
66966;SDS011;53900;51.468;-2.586;2022-11-02T07:42:29;14.15;;;2.28;;
66966;SDS011;53900;51.468;-2.586;2022-11-02T07:44:54;12.88;;;1.65;;
66966;SDS011;53900;51.468;-2.586;2022-11-02T07:47:20;15.15;;;2.13;;
66966;SDS011;53900;51.468;-2.586;2022-11-02T07:49:45;10.52;;;1.77;;
66966;SDS011;53900;51.468;-2.586;2022-11-02T07:52:11;11.80;;;1.95;;
66966;SDS011;53900;51.468;-2.586;2022-11-02T07:54:36;9.82;;;1.92;;
66966;SDS011;53900;51.468;-2.586;2022-11-02T07:57:01;12.00;;;2.10;;
66966;SDS011;53900;51.468;-2.586;2022-11-02T07:59:27;16.10;;;2.17;;
66966;SDS011;53900;51.468;-2.586;2022-11-02T08:01:52;16.17;;;1.90;;
66966;SDS011;53900;51.468;-2.586;2022-11-02T08:04:17;24.65;;;2.10;;
66966;SDS011;53900;51.468;-2.586;2022-11-02T08:06:43;17.70;;;2.42;;
66966;SDS011;53900;51.468;-2.586;2022-11-02T08:09:08;10.13;;;1.98;;
66966;SDS011;53900;51.468;-2.586;2022-11-02T08:11:34;15.90;;;2.00;;
66966;SDS011;53900;51.468;-2.586;2022-11-02T08:13:59;17.95;;;2.05;;
66966;SDS011;53900;51.468;-2.586;2022-11-02T08:16:26;15.60;;;2.33;;
66966;SDS011;53900;51.468;-2.586;2022-11-02T08:18:52;11.55;;;2.05;;
66966;SDS011;53900;51.468;-2.586;2022-11-02T08:21:17;18.38;;;2.65;;
66966;SDS011;53900;51.468;-2.586;2022-11-02T08:23:43;13.52;;;2.25;;
66966;SDS011;53900;51.468;-2.586;2022-11-02T08:26:08;17.95;;;2.50;;
66966;SDS011;53900;51.468;-2.586;2022-11-02T08:28:33;21.67;;;3.15;;
66966;SDS011;53900;51.468;-2.586;2022-11-02T08:31:00;14.38;;;2.10;;
66966;SDS011;53900;51.468;-2.586;2022-11-02T08:33:26;16.73;;;2.95;;
66966;SDS011;53900;51.468;-2.586;2022-11-02T08:35:51;17.60;;;2.25;;
66966;SDS011;53900;51.468;-2.586;2022-11-02T08:38:17;15.88;;;1.80;;
66966;SDS011;53900;51.468;-2.586;2022-11-02T08:40:46;11.55;;;2.10;;
66966;SDS011;53900;51.468;-2.586;2022-11-02T08:43:12;19.67;;;4.07;;
66966;SDS011;53900;51.468;-2.586;2022-11-02T08:45:39;12.07;;;1.98;;
66966;SDS011;53900;51.468;-2.586;2022-11-02T08:48:06;17.02;;;1.77;;
66966;SDS011;53900;51.468;-2.586;2022-11-02T08:50:32;17.35;;;2.70;;
66966;SDS011;53900;51.468;-2.586;2022-11-02T08:52:58;10.40;;;2.25;;
66966;SDS011;53900;51.468;-2.586;2022-11-02T08:55:23;18.27;;;1.85;;
66966;SDS011;53900;51.468;-2.586;2022-11-02T08:57:49;13.43;;;2.00;;
66966;SDS011;53900;51.468;-2.586;2022-11-02T09:00:17;18.55;;;2.30;;
66966;SDS011;53900;51.468;-2.586;2022-11-02T09:02:56;12.98;;;2.13;;
66966;SDS011;53900;51.468;-2.586;2022-11-02T09:05:33;16.75;;;2.30;;
66966;SDS011;53900;51.468;-2.586;2022-11-02T09:08:01;17.98;;;2.80;;
66966;SDS011;53900;51.468;-2.586;2022-11-02T09:10:31;13.05;;;2.28;;
66966;SDS011;53900;51.468;-2.586;2022-11-02T09:12:58;14.98;;;2.35;;
66966;SDS011;53900;51.468;-2.586;2022-11-02T09:15:24;16.95;;;2.72;;
66966;SDS011;53900;51.468;-2.586;2022-11-02T09:17:50;14.38;;;2.83;;
66966;SDS011;53900;51.468;-2.586;2022-11-02T09:20:16;16.30;;;2.13;;
66966;SDS011;53900;51.468;-2.586;2022-11-02T09:22:42;13.43;;;2.38;;
66966;SDS011;53900;51.468;-2.586;2022-11-02T09:25:08;15.02;;;2.08;;
66966;SDS011;53900;51.468;-2.586;2022-11-02T09:27:33;17.02;;;3.45;;
66966;SDS011;53900;51.468;-2.586;2022-11-02T09:29:59;17.08;;;2.83;;
66966;SDS011;53900;51.468;-2.586;2022-11-02T09:32:24;12.63;;;2.58;;
66966;SDS011;53900;51.468;-2.586;2022-11-02T09:34:49;19.75;;;2.17;;
66966;SDS011;53900;51.468;-2.586;2022-11-02T09:37:16;15.95;;;2.45;;
66966;SDS011;53900;51.468;-2.586;2022-11-02T09:39:41;13.57;;;2.20;;
66966;SDS011;53900;51.468;-2.586;2022-11-02T09:42:42;16.25;;;2.10;;
66966;SDS011;53900;51.468;-2.586;2022-11-02T09:45:03;15.45;;;2.42;;
66966;SDS011;53900;51.468;-2.586;2022-11-02T09:47:30;15.98;;;2.00;;
66966;SDS011;53900;51.468;-2.586;2022-11-02T09:49:57;17.52;;;2.33;;
66966;SDS011;53900;51.468;-2.586;2022-11-02T09:52:33;15.70;;;3.00;;
66966;SDS011;53900;51.468;-2.586;2022-11-02T09:55:02;14.73;;;2.20;;
66966;SDS011;53900;51.468;-2.586;2022-11-02T09:57:29;19.67;;;2.42;;
66966;SDS011;53900;51.468;-2.586;2022-11-02T09:59:56;20.88;;;2.67;;
66966;SDS011;53900;51.468;-2.586;2022-11-02T10:05:07;17.95;;;2.60;;
66966;SDS011;53900;51.468;-2.586;2022-11-02T10:10:47;21.45;;;2.40;;
66966;SDS011;53900;51.468;-2.586;2022-11-02T10:16:20;14.27;;;2.00;;
66966;SDS011;53900;51.468;-2.586;2022-11-02T10:18:47;14.45;;;2.13;;
66966;SDS011;53900;51.468;-2.586;2022-11-02T10:21:19;9.57;;;2.00;;
66966;SDS011;53900;51.468;-2.586;2022-11-02T10:26:13;11.35;;;2.33;;
66966;SDS011;53900;51.468;-2.586;2022-11-02T10:28:44;15.60;;;2.10;;
66966;SDS011;53900;51.468;-2.586;2022-11-02T10:44:02;18.33;;;3.70;;
66966;SDS011;53900;51.468;-2.586;2022-11-02T10:52:13;18.55;;;3.42;;
66966;SDS011;53900;51.468;-2.586;2022-11-02T10:54:39;15.75;;;2.70;;
66966;SDS011;53900;51.468;-2.586;2022-11-02T10:57:08;26.13;;;2.70;;
66966;SDS011;53900;51.468;-2.586;2022-11-02T10:59:36;14.77;;;2.95;;
66966;SDS011;53900;51.468;-2.586;2022-11-02T11:02:03;14.20;;;2.55;;
66966;SDS011;53900;51.468;-2.586;2022-11-02T11:04:35;26.67;;;3.40;;
66966;SDS011;53900;51.468;-2.586;2022-11-02T11:07:04;20.42;;;3.40;;
66966;SDS011;53900;51.468;-2.586;2022-11-02T11:09:37;18.48;;;3.05;;
66966;SDS011;53900;51.468;-2.586;2022-11-02T11:12:20;29.33;;;3.97;;
66966;SDS011;53900;51.468;-2.586;2022-11-02T11:15:00;37.92;;;4.47;;
66966;SDS011;53900;51.468;-2.586;2022-11-02T11:17:33;19.50;;;3.17;;
66966;SDS011;53900;51.468;-2.586;2022-11-02T11:20:00;26.17;;;3.80;;
66966;SDS011;53900;51.468;-2.586;2022-11-02T11:27:53;16.48;;;2.90;;
66966;SDS011;53900;51.468;-2.586;2022-11-02T11:30:29;17.65;;;3.38;;
66966;SDS011;53900;51.468;-2.586;2022-11-02T11:32:56;22.02;;;3.80;;
66966;SDS011;53900;51.468;-2.586;2022-11-02T11:35:22;21.48;;;3.95;;
66966;SDS011;53900;51.468;-2.586;2022-11-02T11:37:53;18.98;;;2.97;;
66966;SDS011;53900;51.468;-2.586;2022-11-02T11:40:21;24.00;;;3.40;;
66966;SDS011;53900;51.468;-2.586;2022-11-02T11:42:51;26.33;;;3.78;;
66966;SDS011;53900;51.468;-2.586;2022-11-02T11:45:21;37.25;;;3.83;;
66966;SDS011;53900;51.468;-2.586;2022-11-02T11:47:52;17.30;;;3.03;;
66966;SDS011;53900;51.468;-2.586;2022-11-02T11:50:20;21.10;;;3.15;;
66966;SDS011;53900;51.468;-2.586;2022-11-02T11:52:46;17.77;;;3.30;;
66966;SDS011;53900;51.468;-2.586;2022-11-02T11:55:27;23.88;;;3.22;;
66966;SDS011;53900;51.468;-2.586;2022-11-02T11:58:03;26.17;;;3.88;;
66966;SDS011;53900;51.468;-2.586;2022-11-02T12:00:35;22.65;;;4.32;;
66966;SDS011;53900;51.468;-2.586;2022-11-02T12:03:01;26.55;;;3.35;;
66966;SDS011;53900;51.468;-2.586;2022-11-02T12:05:30;22.63;;;3.50;;
66966;SDS011;53900;51.468;-2.586;2022-11-02T12:13:20;22.23;;;3.55;;
66966;SDS011;53900;51.468;-2.586;2022-11-02T12:19:23;18.45;;;3.22;;
66966;SDS011;53900;51.468;-2.586;2022-11-02T12:27:23;21.15;;;3.65;;
66966;SDS011;53900;51.468;-2.586;2022-11-02T12:30:01;18.80;;;3.15;;
66966;SDS011;53900;51.468;-2.586;2022-11-02T12:35:04;18.10;;;3.00;;
66966;SDS011;53900;51.468;-2.586;2022-11-02T12:54:30;23.08;;;3.17;;
66966;SDS011;53900;51.468;-2.586;2022-11-02T12:57:03;19.25;;;3.45;;
66966;SDS011;53900;51.468;-2.586;2022-11-02T12:59:31;15.63;;;2.92;;
66966;SDS011;53900;51.468;-2.586;2022-11-02T13:02:01;26.95;;;3.38;;
66966;SDS011;53900;51.468;-2.586;2022-11-02T13:07:14;20.23;;;3.30;;
66966;SDS011;53900;51.468;-2.586;2022-11-02T13:09:53;25.15;;;3.40;;
66966;SDS011;53900;51.468;-2.586;2022-11-02T13:12:23;18.05;;;2.67;;
66966;SDS011;53900;51.468;-2.586;2022-11-02T13:14:54;23.48;;;3.55;;
66966;SDS011;53900;51.468;-2.586;2022-11-02T13:20:27;20.63;;;3.83;;
66966;SDS011;53900;51.468;-2.586;2022-11-02T13:22:56;24.67;;;3.60;;
66966;SDS011;53900;51.468;-2.586;2022-11-02T13:25:30;21.17;;;3.00;;
66966;SDS011;53900;51.468;-2.586;2022-11-02T13:28:03;28.20;;;3.63;;
66966;SDS011;53900;51.468;-2.586;2022-11-02T13:30:33;18.48;;;2.95;;
66966;SDS011;53900;51.468;-2.586;2022-11-02T13:33:19;16.98;;;3.45;;
66966;SDS011;53900;51.468;-2.586;2022-11-02T13:35:48;25.05;;;3.63;;
66966;SDS011;53900;51.468;-2.586;2022-11-02T13:41:09;17.85;;;3.13;;
66966;SDS011;53900;51.468;-2.586;2022-11-02T13:49:19;23.25;;;3.80;;
66966;SDS011;53900;51.468;-2.586;2022-11-02T13:51:48;16.92;;;4.25;;
66966;SDS011;53900;51.468;-2.586;2022-11-02T13:56:43;22.42;;;3.50;;
66966;SDS011;53900;51.468;-2.586;2022-11-02T13:59:09;26.77;;;3.65;;
66966;SDS011;53900;51.468;-2.586;2022-11-02T14:01:44;16.65;;;3.47;;
66966;SDS011;53900;51.468;-2.586;2022-11-02T14:04:10;27.30;;;3.30;;
66966;SDS011;53900;51.468;-2.586;2022-11-02T14:09:09;20.27;;;3.05;;
66966;SDS011;53900;51.468;-2.586;2022-11-02T14:12:09;14.95;;;2.88;;
66966;SDS011;53900;51.468;-2.586;2022-11-02T14:14:42;18.67;;;3.58;;
66966;SDS011;53900;51.468;-2.586;2022-11-02T14:17:11;16.20;;;2.85;;
66966;SDS011;53900;51.468;-2.586;2022-11-02T14:19:48;24.33;;;2.92;;
66966;SDS011;53900;51.468;-2.586;2022-11-02T14:22:16;18.33;;;3.78;;
66966;SDS011;53900;51.468;-2.586;2022-11-02T14:35:00;23.08;;;3.70;;
66966;SDS011;53900;51.468;-2.586;2022-11-02T14:48:56;19.80;;;3.58;;
66966;SDS011;53900;51.468;-2.586;2022-11-02T14:51:24;23.40;;;2.63;;
66966;SDS011;53900;51.468;-2.586;2022-11-02T14:53:55;19.77;;;3.10;;
66966;SDS011;53900;51.468;-2.586;2022-11-02T14:56:23;16.15;;;2.50;;
66966;SDS011;53900;51.468;-2.586;2022-11-02T14:58:53;21.83;;;3.67;;
66966;SDS011;53900;51.468;-2.586;2022-11-02T15:01:20;17.67;;;3.10;;
66966;SDS011;53900;51.468;-2.586;2022-11-02T15:03:46;22.05;;;3.40;;
66966;SDS011;53900;51.468;-2.586;2022-11-02T15:08:57;24.80;;;3.30;;
66966;SDS011;53900;51.468;-2.586;2022-11-02T15:16:59;24.25;;;3.30;;
66966;SDS011;53900;51.468;-2.586;2022-11-02T15:22:31;18.10;;;2.53;;
66966;SDS011;53900;51.468;-2.586;2022-11-02T15:27:44;16.38;;;3.22;;
66966;SDS011;53900;51.468;-2.586;2022-11-02T15:30:11;22.92;;;3.53;;
66966;SDS011;53900;51.468;-2.586;2022-11-02T15:32:39;15.93;;;3.50;;
66966;SDS011;53900;51.468;-2.586;2022-11-02T15:35:18;19.83;;;3.22;;
66966;SDS011;53900;51.468;-2.586;2022-11-02T15:37:45;16.38;;;2.75;;
66966;SDS011;53900;51.468;-2.586;2022-11-02T15:40:33;18.48;;;2.80;;
66966;SDS011;53900;51.468;-2.586;2022-11-02T15:43:03;11.45;;;2.78;;
66966;SDS011;53900;51.468;-2.586;2022-11-02T15:45:50;14.77;;;3.13;;
66966;SDS011;53900;51.468;-2.586;2022-11-02T16:01:43;23.13;;;3.53;;
66966;SDS011;53900;51.468;-2.586;2022-11-02T16:04:11;24.95;;;3.92;;
66966;SDS011;53900;51.468;-2.586;2022-11-02T16:06:43;28.20;;;4.35;;
66966;SDS011;53900;51.468;-2.586;2022-11-02T16:14:41;15.40;;;3.10;;
66966;SDS011;53900;51.468;-2.586;2022-11-02T16:17:24;20.50;;;3.08;;
66966;SDS011;53900;51.468;-2.586;2022-11-02T16:19:51;17.00;;;3.97;;
66966;SDS011;53900;51.468;-2.586;2022-11-02T16:22:26;20.45;;;3.60;;
66966;SDS011;53900;51.468;-2.586;2022-11-02T16:24:52;21.88;;;3.72;;
66966;SDS011;53900;51.468;-2.586;2022-11-02T16:27:19;20.25;;;3.70;;
66966;SDS011;53900;51.468;-2.586;2022-11-02T16:29:45;20.10;;;3.17;;
66966;SDS011;53900;51.468;-2.586;2022-11-02T16:32:12;25.42;;;3.95;;
66966;SDS011;53900;51.468;-2.586;2022-11-02T16:34:38;14.73;;;2.67;;
66966;SDS011;53900;51.468;-2.586;2022-11-02T16:37:04;13.77;;;2.97;;
66966;SDS011;53900;51.468;-2.586;2022-11-02T16:39:34;14.10;;;2.80;;
66966;SDS011;53900;51.468;-2.586;2022-11-02T16:42:01;13.88;;;2.88;;
66966;SDS011;53900;51.468;-2.586;2022-11-02T16:44:32;14.57;;;2.50;;
66966;SDS011;53900;51.468;-2.586;2022-11-02T16:46:58;14.70;;;3.08;;
66966;SDS011;53900;51.468;-2.586;2022-11-02T16:49:30;13.80;;;3.20;;
66966;SDS011;53900;51.468;-2.586;2022-11-02T16:51:57;10.43;;;2.28;;
66966;SDS011;53900;51.468;-2.586;2022-11-02T16:56:56;11.77;;;2.58;;
66966;SDS011;53900;51.468;-2.586;2022-11-02T16:59:25;14.85;;;2.30;;
66966;SDS011;53900;51.468;-2.586;2022-11-02T17:01:51;18.13;;;3.60;;
66966;SDS011;53900;51.468;-2.586;2022-11-02T17:04:22;17.08;;;2.85;;
66966;SDS011;53900;51.468;-2.586;2022-11-02T17:06:49;12.65;;;2.78;;
66966;SDS011;53900;51.468;-2.586;2022-11-02T17:09:21;15.45;;;3.22;;
66966;SDS011;53900;51.468;-2.586;2022-11-02T17:11:49;20.88;;;3.33;;
66966;SDS011;53900;51.468;-2.586;2022-11-02T17:14:16;19.23;;;3.30;;
66966;SDS011;53900;51.468;-2.586;2022-11-02T17:19:47;20.83;;;3.85;;
66966;SDS011;53900;51.468;-2.586;2022-11-02T17:27:34;19.15;;;2.92;;
66966;SDS011;53900;51.468;-2.586;2022-11-02T17:29:59;16.80;;;3.00;;